sensor_id;sensor_type;location;lat;lon;timestamp;P1;durP1;ratioP1;P2;durP2;ratioP2
15061;SDS011;7630;50.306;8.566;2022-09-25T00:00:43;235.03;;;83.87;;
15061;SDS011;7630;50.306;8.566;2022-09-25T00:04:45;73.60;;;55.47;;
15061;SDS011;7630;50.306;8.566;2022-09-25T00:08:47;163.40;;;68.80;;
15061;SDS011;7630;50.306;8.566;2022-09-25T00:12:48;190.23;;;76.07;;
15061;SDS011;7630;50.306;8.566;2022-09-25T00:16:50;220.20;;;83.43;;
15061;SDS011;7630;50.306;8.566;2022-09-25T00:20:59;169.53;;;72.93;;
15061;SDS011;7630;50.306;8.566;2022-09-25T00:25:01;144.70;;;63.73;;
15061;SDS011;7630;50.306;8.566;2022-09-25T00:29:03;148.20;;;60.90;;
15061;SDS011;7630;50.306;8.566;2022-09-25T00:33:05;129.00;;;58.17;;
15061;SDS011;7630;50.306;8.566;2022-09-25T00:37:07;205.47;;;74.50;;
15061;SDS011;7630;50.306;8.566;2022-09-25T00:41:08;89.93;;;56.63;;
15061;SDS011;7630;50.306;8.566;2022-09-25T00:45:14;254.73;;;83.37;;
15061;SDS011;7630;50.306;8.566;2022-09-25T00:49:22;233.37;;;80.93;;
15061;SDS011;7630;50.306;8.566;2022-09-25T00:53:24;56.37;;;50.40;;
15061;SDS011;7630;50.306;8.566;2022-09-25T00:57:30;136.53;;;74.03;;
15061;SDS011;7630;50.306;8.566;2022-09-25T01:01:34;99.50;;;57.03;;
15061;SDS011;7630;50.306;8.566;2022-09-25T01:05:36;100.70;;;62.43;;
15061;SDS011;7630;50.306;8.566;2022-09-25T01:09:40;189.30;;;81.20;;
15061;SDS011;7630;50.306;8.566;2022-09-25T01:13:42;182.90;;;73.13;;
15061;SDS011;7630;50.306;8.566;2022-09-25T01:22:00;143.13;;;68.27;;
15061;SDS011;7630;50.306;8.566;2022-09-25T01:30:41;213.57;;;80.97;;
15061;SDS011;7630;50.306;8.566;2022-09-25T01:34:55;255.43;;;87.77;;
15061;SDS011;7630;50.306;8.566;2022-09-25T01:38:57;143.43;;;68.20;;
15061;SDS011;7630;50.306;8.566;2022-09-25T01:47:13;112.77;;;59.70;;
15061;SDS011;7630;50.306;8.566;2022-09-25T01:51:23;162.37;;;68.40;;
15061;SDS011;7630;50.306;8.566;2022-09-25T01:55:29;82.20;;;51.80;;
15061;SDS011;7630;50.306;8.566;2022-09-25T01:59:36;114.30;;;58.77;;
15061;SDS011;7630;50.306;8.566;2022-09-25T02:03:46;228.23;;;80.03;;
15061;SDS011;7630;50.306;8.566;2022-09-25T02:07:52;274.90;;;84.27;;
15061;SDS011;7630;50.306;8.566;2022-09-25T02:11:56;168.90;;;64.53;;
15061;SDS011;7630;50.306;8.566;2022-09-25T02:16:08;115.90;;;56.77;;
15061;SDS011;7630;50.306;8.566;2022-09-25T02:20:08;177.17;;;63.27;;
15061;SDS011;7630;50.306;8.566;2022-09-25T02:24:32;233.80;;;72.90;;
15061;SDS011;7630;50.306;8.566;2022-09-25T02:28:33;42.50;;;37.90;;
15061;SDS011;7630;50.306;8.566;2022-09-25T02:32:35;61.87;;;42.13;;
15061;SDS011;7630;50.306;8.566;2022-09-25T02:36:36;42.50;;;35.60;;
15061;SDS011;7630;50.306;8.566;2022-09-25T02:40:50;116.23;;;51.13;;
15061;SDS011;7630;50.306;8.566;2022-09-25T02:53:28;85.47;;;41.90;;
15061;SDS011;7630;50.306;8.566;2022-09-25T03:02:13;63.40;;;35.60;;
15061;SDS011;7630;50.306;8.566;2022-09-25T03:06:16;141.63;;;45.80;;
15061;SDS011;7630;50.306;8.566;2022-09-25T03:10:19;82.40;;;37.37;;
15061;SDS011;7630;50.306;8.566;2022-09-25T03:14:20;113.17;;;44.90;;
15061;SDS011;7630;50.306;8.566;2022-09-25T03:18:22;56.07;;;34.07;;
15061;SDS011;7630;50.306;8.566;2022-09-25T03:22:25;58.00;;;37.97;;
15061;SDS011;7630;50.306;8.566;2022-09-25T03:26:26;54.60;;;39.87;;
15061;SDS011;7630;50.306;8.566;2022-09-25T03:30:27;50.20;;;39.13;;
15061;SDS011;7630;50.306;8.566;2022-09-25T03:34:29;57.83;;;42.43;;
15061;SDS011;7630;50.306;8.566;2022-09-25T03:38:31;63.00;;;42.43;;
15061;SDS011;7630;50.306;8.566;2022-09-25T03:42:32;68.17;;;43.97;;
15061;SDS011;7630;50.306;8.566;2022-09-25T03:46:34;55.00;;;41.20;;
15061;SDS011;7630;50.306;8.566;2022-09-25T03:50:36;55.57;;;43.03;;
15061;SDS011;7630;50.306;8.566;2022-09-25T03:54:39;56.87;;;44.00;;
15061;SDS011;7630;50.306;8.566;2022-09-25T03:58:40;71.10;;;46.13;;
15061;SDS011;7630;50.306;8.566;2022-09-25T04:02:41;57.20;;;42.80;;
15061;SDS011;7630;50.306;8.566;2022-09-25T04:06:43;61.07;;;43.50;;
15061;SDS011;7630;50.306;8.566;2022-09-25T04:10:44;69.13;;;47.17;;
15061;SDS011;7630;50.306;8.566;2022-09-25T04:14:46;56.33;;;43.70;;
15061;SDS011;7630;50.306;8.566;2022-09-25T04:18:47;61.53;;;43.03;;
15061;SDS011;7630;50.306;8.566;2022-09-25T04:22:50;69.13;;;47.23;;
15061;SDS011;7630;50.306;8.566;2022-09-25T04:26:51;63.50;;;46.77;;
15061;SDS011;7630;50.306;8.566;2022-09-25T04:30:53;79.07;;;48.97;;
15061;SDS011;7630;50.306;8.566;2022-09-25T04:34:54;74.07;;;50.63;;
15061;SDS011;7630;50.306;8.566;2022-09-25T04:38:55;73.67;;;49.10;;
15061;SDS011;7630;50.306;8.566;2022-09-25T04:42:57;85.33;;;52.90;;
15061;SDS011;7630;50.306;8.566;2022-09-25T04:46:59;103.87;;;55.20;;
15061;SDS011;7630;50.306;8.566;2022-09-25T04:51:01;101.63;;;58.27;;
15061;SDS011;7630;50.306;8.566;2022-09-25T04:55:02;85.03;;;54.17;;
15061;SDS011;7630;50.306;8.566;2022-09-25T04:59:04;116.45;;;76.28;;
15061;SDS011;7630;50.306;8.566;2022-09-25T05:03:05;86.20;;;54.60;;
15061;SDS011;7630;50.306;8.566;2022-09-25T05:07:07;82.93;;;52.47;;
15061;SDS011;7630;50.306;8.566;2022-09-25T05:11:08;101.30;;;57.60;;
15061;SDS011;7630;50.306;8.566;2022-09-25T05:15:10;76.20;;;49.17;;
15061;SDS011;7630;50.306;8.566;2022-09-25T05:19:12;121.00;;;58.10;;
15061;SDS011;7630;50.306;8.566;2022-09-25T05:23:13;75.27;;;50.93;;
15061;SDS011;7630;50.306;8.566;2022-09-25T05:27:16;68.33;;;48.23;;
15061;SDS011;7630;50.306;8.566;2022-09-25T05:31:17;68.40;;;48.10;;
15061;SDS011;7630;50.306;8.566;2022-09-25T05:35:19;72.17;;;48.87;;
15061;SDS011;7630;50.306;8.566;2022-09-25T05:39:22;68.80;;;48.20;;
15061;SDS011;7630;50.306;8.566;2022-09-25T05:43:23;64.67;;;46.30;;
15061;SDS011;7630;50.306;8.566;2022-09-25T05:47:26;66.73;;;46.20;;
15061;SDS011;7630;50.306;8.566;2022-09-25T05:51:27;64.77;;;45.63;;
15061;SDS011;7630;50.306;8.566;2022-09-25T05:55:28;75.73;;;49.97;;
15061;SDS011;7630;50.306;8.566;2022-09-25T05:59:30;64.97;;;47.90;;
15061;SDS011;7630;50.306;8.566;2022-09-25T06:03:31;64.20;;;44.80;;
15061;SDS011;7630;50.306;8.566;2022-09-25T06:07:33;71.53;;;48.83;;
15061;SDS011;7630;50.306;8.566;2022-09-25T06:11:34;69.67;;;47.50;;
15061;SDS011;7630;50.306;8.566;2022-09-25T06:15:36;69.63;;;46.93;;
15061;SDS011;7630;50.306;8.566;2022-09-25T06:19:39;64.40;;;48.93;;
15061;SDS011;7630;50.306;8.566;2022-09-25T06:23:40;65.50;;;48.20;;
15061;SDS011;7630;50.306;8.566;2022-09-25T06:27:44;63.80;;;45.97;;
15061;SDS011;7630;50.306;8.566;2022-09-25T06:31:45;72.80;;;49.83;;
15061;SDS011;7630;50.306;8.566;2022-09-25T06:35:46;68.43;;;46.27;;
15061;SDS011;7630;50.306;8.566;2022-09-25T06:39:49;111.90;;;53.13;;
15061;SDS011;7630;50.306;8.566;2022-09-25T06:43:50;73.37;;;47.73;;
15061;SDS011;7630;50.306;8.566;2022-09-25T06:47:52;68.73;;;46.20;;
15061;SDS011;7630;50.306;8.566;2022-09-25T06:51:56;56.87;;;42.07;;
15061;SDS011;7630;50.306;8.566;2022-09-25T06:55:57;63.90;;;44.13;;
15061;SDS011;7630;50.306;8.566;2022-09-25T06:59:59;65.37;;;43.70;;
15061;SDS011;7630;50.306;8.566;2022-09-25T07:04:00;61.00;;;43.23;;
15061;SDS011;7630;50.306;8.566;2022-09-25T07:08:03;95.70;;;50.53;;
15061;SDS011;7630;50.306;8.566;2022-09-25T07:12:04;67.80;;;48.07;;
15061;SDS011;7630;50.306;8.566;2022-09-25T07:16:14;63.57;;;45.07;;
15061;SDS011;7630;50.306;8.566;2022-09-25T07:20:16;63.73;;;45.10;;
15061;SDS011;7630;50.306;8.566;2022-09-25T07:24:18;71.97;;;46.80;;
15061;SDS011;7630;50.306;8.566;2022-09-25T07:28:19;70.80;;;46.83;;
15061;SDS011;7630;50.306;8.566;2022-09-25T07:32:20;60.73;;;42.00;;
15061;SDS011;7630;50.306;8.566;2022-09-25T07:36:22;61.90;;;41.73;;
15061;SDS011;7630;50.306;8.566;2022-09-25T07:40:23;66.70;;;45.43;;
15061;SDS011;7630;50.306;8.566;2022-09-25T07:44:27;54.73;;;39.73;;
15061;SDS011;7630;50.306;8.566;2022-09-25T07:48:29;57.00;;;43.13;;
15061;SDS011;7630;50.306;8.566;2022-09-25T07:52:31;53.43;;;41.30;;
15061;SDS011;7630;50.306;8.566;2022-09-25T07:56:32;60.33;;;42.97;;
15061;SDS011;7630;50.306;8.566;2022-09-25T08:00:34;55.10;;;41.77;;
15061;SDS011;7630;50.306;8.566;2022-09-25T08:04:35;57.83;;;42.67;;
15061;SDS011;7630;50.306;8.566;2022-09-25T08:08:36;51.13;;;40.93;;
15061;SDS011;7630;50.306;8.566;2022-09-25T08:12:39;63.77;;;44.10;;
15061;SDS011;7630;50.306;8.566;2022-09-25T08:16:40;56.40;;;40.43;;
15061;SDS011;7630;50.306;8.566;2022-09-25T08:20:42;58.90;;;44.80;;
15061;SDS011;7630;50.306;8.566;2022-09-25T08:24:43;54.77;;;42.40;;
15061;SDS011;7630;50.306;8.566;2022-09-25T08:28:45;50.80;;;38.03;;
15061;SDS011;7630;50.306;8.566;2022-09-25T08:32:46;57.03;;;41.93;;
15061;SDS011;7630;50.306;8.566;2022-09-25T08:36:50;58.90;;;44.50;;
15061;SDS011;7630;50.306;8.566;2022-09-25T08:45:36;55.90;;;42.07;;
15061;SDS011;7630;50.306;8.566;2022-09-25T08:54:02;52.80;;;40.47;;
15061;SDS011;7630;50.306;8.566;2022-09-25T08:58:04;47.93;;;39.27;;
15061;SDS011;7630;50.306;8.566;2022-09-25T09:02:11;51.63;;;38.87;;
15061;SDS011;7630;50.306;8.566;2022-09-25T09:06:17;46.80;;;38.17;;
15061;SDS011;7630;50.306;8.566;2022-09-25T09:10:23;50.27;;;37.43;;
15061;SDS011;7630;50.306;8.566;2022-09-25T09:14:25;48.47;;;36.50;;
15061;SDS011;7630;50.306;8.566;2022-09-25T09:18:30;39.63;;;35.23;;
15061;SDS011;7630;50.306;8.566;2022-09-25T09:22:38;40.00;;;31.97;;
15061;SDS011;7630;50.306;8.566;2022-09-25T09:31:15;31.47;;;28.10;;
15061;SDS011;7630;50.306;8.566;2022-09-25T09:39:57;31.87;;;25.93;;
15061;SDS011;7630;50.306;8.566;2022-09-25T09:52:38;24.23;;;20.50;;
15061;SDS011;7630;50.306;8.566;2022-09-25T09:56:43;23.43;;;20.57;;
15061;SDS011;7630;50.306;8.566;2022-09-25T10:00:47;22.73;;;20.43;;
15061;SDS011;7630;50.306;8.566;2022-09-25T10:04:49;21.33;;;17.97;;
15061;SDS011;7630;50.306;8.566;2022-09-25T10:08:52;23.33;;;20.13;;
15061;SDS011;7630;50.306;8.566;2022-09-25T10:12:53;22.20;;;19.87;;
15061;SDS011;7630;50.306;8.566;2022-09-25T10:16:54;22.60;;;20.13;;
15061;SDS011;7630;50.306;8.566;2022-09-25T10:21:02;21.83;;;19.40;;
15061;SDS011;7630;50.306;8.566;2022-09-25T10:25:15;17.50;;;13.17;;
15061;SDS011;7630;50.306;8.566;2022-09-25T10:29:26;18.43;;;15.27;;
15061;SDS011;7630;50.306;8.566;2022-09-25T10:33:30;15.07;;;13.43;;
15061;SDS011;7630;50.306;8.566;2022-09-25T10:37:32;13.00;;;11.53;;
15061;SDS011;7630;50.306;8.566;2022-09-25T10:41:41;19.57;;;12.80;;
15061;SDS011;7630;50.306;8.566;2022-09-25T10:45:43;12.47;;;10.43;;
15061;SDS011;7630;50.306;8.566;2022-09-25T10:49:46;19.33;;;14.63;;
15061;SDS011;7630;50.306;8.566;2022-09-25T10:54:14;13.17;;;10.87;;
15061;SDS011;7630;50.306;8.566;2022-09-25T10:58:18;13.60;;;11.50;;
15061;SDS011;7630;50.306;8.566;2022-09-25T11:02:37;17.47;;;12.10;;
15061;SDS011;7630;50.306;8.566;2022-09-25T11:06:46;17.33;;;11.73;;
15061;SDS011;7630;50.306;8.566;2022-09-25T11:10:50;10.57;;;9.43;;
15061;SDS011;7630;50.306;8.566;2022-09-25T11:15:02;13.47;;;10.07;;
15061;SDS011;7630;50.306;8.566;2022-09-25T11:19:11;12.07;;;9.77;;
15061;SDS011;7630;50.306;8.566;2022-09-25T11:31:54;16.47;;;10.00;;
15061;SDS011;7630;50.306;8.566;2022-09-25T11:36:02;19.70;;;10.50;;
15061;SDS011;7630;50.306;8.566;2022-09-25T11:44:35;17.87;;;11.77;;
15061;SDS011;7630;50.306;8.566;2022-09-25T11:48:49;12.90;;;11.50;;
15061;SDS011;7630;50.306;8.566;2022-09-25T12:01:38;13.90;;;11.63;;
15061;SDS011;7630;50.306;8.566;2022-09-25T12:10:02;15.13;;;13.70;;
15061;SDS011;7630;50.306;8.566;2022-09-25T12:23:05;18.77;;;16.10;;
15061;SDS011;7630;50.306;8.566;2022-09-25T12:36:02;18.47;;;15.83;;
15061;SDS011;7630;50.306;8.566;2022-09-25T12:49:01;17.23;;;15.73;;
15061;SDS011;7630;50.306;8.566;2022-09-25T12:53:05;22.27;;;18.47;;
15061;SDS011;7630;50.306;8.566;2022-09-25T12:57:36;23.60;;;18.13;;
15061;SDS011;7630;50.306;8.566;2022-09-25T13:01:45;17.97;;;15.87;;
15061;SDS011;7630;50.306;8.566;2022-09-25T13:05:57;14.23;;;12.83;;
15061;SDS011;7630;50.306;8.566;2022-09-25T13:09:55;20.13;;;18.33;;
15061;SDS011;7630;50.306;8.566;2022-09-25T13:13:56;18.17;;;16.37;;
15061;SDS011;7630;50.306;8.566;2022-09-25T13:17:59;21.53;;;19.23;;
15061;SDS011;7630;50.306;8.566;2022-09-25T13:22:05;15.43;;;13.97;;
15061;SDS011;7630;50.306;8.566;2022-09-25T13:30:20;14.57;;;11.13;;
15061;SDS011;7630;50.306;8.566;2022-09-25T13:34:24;15.63;;;11.63;;
15061;SDS011;7630;50.306;8.566;2022-09-25T13:38:26;9.27;;;7.23;;
15061;SDS011;7630;50.306;8.566;2022-09-25T13:42:46;7.17;;;6.57;;
15061;SDS011;7630;50.306;8.566;2022-09-25T13:46:48;9.70;;;7.43;;
15061;SDS011;7630;50.306;8.566;2022-09-25T13:50:49;8.50;;;6.90;;
15061;SDS011;7630;50.306;8.566;2022-09-25T13:59:22;8.73;;;7.77;;
15061;SDS011;7630;50.306;8.566;2022-09-25T14:03:31;8.13;;;5.80;;
15061;SDS011;7630;50.306;8.566;2022-09-25T14:07:34;7.67;;;6.97;;
15061;SDS011;7630;50.306;8.566;2022-09-25T14:11:36;11.33;;;7.03;;
15061;SDS011;7630;50.306;8.566;2022-09-25T14:15:40;8.93;;;8.03;;
15061;SDS011;7630;50.306;8.566;2022-09-25T14:19:49;8.63;;;6.17;;
15061;SDS011;7630;50.306;8.566;2022-09-25T14:23:49;6.97;;;6.10;;
15061;SDS011;7630;50.306;8.566;2022-09-25T14:27:53;8.70;;;6.27;;
15061;SDS011;7630;50.306;8.566;2022-09-25T14:36:13;8.40;;;5.43;;
15061;SDS011;7630;50.306;8.566;2022-09-25T14:48:59;6.50;;;4.80;;
15061;SDS011;7630;50.306;8.566;2022-09-25T14:53:22;5.90;;;4.50;;
15061;SDS011;7630;50.306;8.566;2022-09-25T14:57:30;10.53;;;4.90;;
15061;SDS011;7630;50.306;8.566;2022-09-25T15:01:34;5.33;;;3.87;;
15061;SDS011;7630;50.306;8.566;2022-09-25T15:05:38;8.03;;;4.40;;
15061;SDS011;7630;50.306;8.566;2022-09-25T15:09:42;5.43;;;4.13;;
15061;SDS011;7630;50.306;8.566;2022-09-25T15:13:47;6.47;;;5.13;;
15061;SDS011;7630;50.306;8.566;2022-09-25T15:17:50;4.97;;;3.90;;
15061;SDS011;7630;50.306;8.566;2022-09-25T15:21:54;10.83;;;7.40;;
15061;SDS011;7630;50.306;8.566;2022-09-25T15:25:55;6.53;;;5.90;;
15061;SDS011;7630;50.306;8.566;2022-09-25T15:29:59;20.80;;;18.60;;
15061;SDS011;7630;50.306;8.566;2022-09-25T15:34:02;16.73;;;14.90;;
15061;SDS011;7630;50.306;8.566;2022-09-25T15:38:10;13.13;;;10.70;;
15061;SDS011;7630;50.306;8.566;2022-09-25T15:42:13;14.13;;;10.30;;
15061;SDS011;7630;50.306;8.566;2022-09-25T15:46:26;10.93;;;8.17;;
15061;SDS011;7630;50.306;8.566;2022-09-25T15:50:34;9.13;;;8.13;;
15061;SDS011;7630;50.306;8.566;2022-09-25T15:54:37;8.73;;;7.93;;
15061;SDS011;7630;50.306;8.566;2022-09-25T15:58:43;11.07;;;9.77;;
15061;SDS011;7630;50.306;8.566;2022-09-25T16:03:00;13.60;;;11.20;;
15061;SDS011;7630;50.306;8.566;2022-09-25T16:11:36;16.30;;;14.53;;
15061;SDS011;7630;50.306;8.566;2022-09-25T16:15:43;17.00;;;15.30;;
15061;SDS011;7630;50.306;8.566;2022-09-25T16:19:58;19.77;;;17.67;;
15061;SDS011;7630;50.306;8.566;2022-09-25T16:24:03;22.03;;;18.17;;
15061;SDS011;7630;50.306;8.566;2022-09-25T16:28:17;19.03;;;15.57;;
15061;SDS011;7630;50.306;8.566;2022-09-25T16:32:17;20.53;;;17.90;;
15061;SDS011;7630;50.306;8.566;2022-09-25T16:36:21;14.40;;;12.63;;
15061;SDS011;7630;50.306;8.566;2022-09-25T16:40:29;15.10;;;10.80;;
15061;SDS011;7630;50.306;8.566;2022-09-25T16:44:38;14.67;;;13.03;;
15061;SDS011;7630;50.306;8.566;2022-09-25T16:48:58;12.30;;;8.93;;
15061;SDS011;7630;50.306;8.566;2022-09-25T16:53:00;14.70;;;12.47;;
15061;SDS011;7630;50.306;8.566;2022-09-25T16:57:04;13.60;;;12.20;;
15061;SDS011;7630;50.306;8.566;2022-09-25T17:01:05;11.33;;;10.13;;
15061;SDS011;7630;50.306;8.566;2022-09-25T17:05:18;13.90;;;11.03;;
15061;SDS011;7630;50.306;8.566;2022-09-25T17:09:23;11.00;;;9.73;;
15061;SDS011;7630;50.306;8.566;2022-09-25T17:13:26;13.40;;;11.67;;
15061;SDS011;7630;50.306;8.566;2022-09-25T17:17:30;14.87;;;13.43;;
15061;SDS011;7630;50.306;8.566;2022-09-25T17:21:33;12.67;;;11.13;;
15061;SDS011;7630;50.306;8.566;2022-09-25T17:29:48;12.20;;;10.77;;
15061;SDS011;7630;50.306;8.566;2022-09-25T17:33:51;19.90;;;18.00;;
15061;SDS011;7630;50.306;8.566;2022-09-25T17:37:52;12.63;;;11.63;;
15061;SDS011;7630;50.306;8.566;2022-09-25T17:41:54;12.93;;;11.83;;
15061;SDS011;7630;50.306;8.566;2022-09-25T17:45:57;11.50;;;10.53;;
15061;SDS011;7630;50.306;8.566;2022-09-25T17:49:59;14.70;;;12.33;;
15061;SDS011;7630;50.306;8.566;2022-09-25T17:54:01;13.50;;;10.93;;
15061;SDS011;7630;50.306;8.566;2022-09-25T17:58:06;13.17;;;11.63;;
15061;SDS011;7630;50.306;8.566;2022-09-25T18:02:12;13.57;;;11.60;;
15061;SDS011;7630;50.306;8.566;2022-09-25T18:06:14;16.10;;;12.10;;
15061;SDS011;7630;50.306;8.566;2022-09-25T18:10:17;11.67;;;10.37;;
15061;SDS011;7630;50.306;8.566;2022-09-25T18:14:19;15.70;;;12.73;;
15061;SDS011;7630;50.306;8.566;2022-09-25T18:18:23;13.13;;;11.83;;
15061;SDS011;7630;50.306;8.566;2022-09-25T18:22:24;13.07;;;9.30;;
15061;SDS011;7630;50.306;8.566;2022-09-25T18:26:26;9.73;;;8.17;;
15061;SDS011;7630;50.306;8.566;2022-09-25T18:30:32;11.73;;;8.23;;
15061;SDS011;7630;50.306;8.566;2022-09-25T18:34:34;14.00;;;8.33;;
15061;SDS011;7630;50.306;8.566;2022-09-25T18:38:36;13.87;;;12.43;;
15061;SDS011;7630;50.306;8.566;2022-09-25T18:42:40;17.37;;;15.23;;
15061;SDS011;7630;50.306;8.566;2022-09-25T18:46:45;12.90;;;11.53;;
15061;SDS011;7630;50.306;8.566;2022-09-25T18:50:50;14.40;;;12.27;;
15061;SDS011;7630;50.306;8.566;2022-09-25T18:54:53;11.77;;;10.57;;
15061;SDS011;7630;50.306;8.566;2022-09-25T18:58:55;12.80;;;9.97;;
15061;SDS011;7630;50.306;8.566;2022-09-25T19:02:57;10.67;;;8.23;;
15061;SDS011;7630;50.306;8.566;2022-09-25T19:06:59;13.80;;;7.57;;
15061;SDS011;7630;50.306;8.566;2022-09-25T19:11:02;8.90;;;7.87;;
15061;SDS011;7630;50.306;8.566;2022-09-25T19:15:08;9.43;;;8.53;;
15061;SDS011;7630;50.306;8.566;2022-09-25T19:19:10;11.90;;;9.50;;
15061;SDS011;7630;50.306;8.566;2022-09-25T19:23:13;12.23;;;11.10;;
15061;SDS011;7630;50.306;8.566;2022-09-25T19:27:15;14.40;;;12.70;;
15061;SDS011;7630;50.306;8.566;2022-09-25T19:31:19;13.83;;;11.40;;
15061;SDS011;7630;50.306;8.566;2022-09-25T19:35:23;10.20;;;9.23;;
15061;SDS011;7630;50.306;8.566;2022-09-25T19:39:26;10.47;;;8.53;;
15061;SDS011;7630;50.306;8.566;2022-09-25T19:43:32;16.77;;;14.40;;
15061;SDS011;7630;50.306;8.566;2022-09-25T19:47:34;22.17;;;20.20;;
15061;SDS011;7630;50.306;8.566;2022-09-25T19:51:38;20.87;;;18.80;;
15061;SDS011;7630;50.306;8.566;2022-09-25T19:55:41;22.20;;;20.17;;
15061;SDS011;7630;50.306;8.566;2022-09-25T19:59:45;22.23;;;20.37;;
15061;SDS011;7630;50.306;8.566;2022-09-25T20:03:50;21.60;;;19.60;;
15061;SDS011;7630;50.306;8.566;2022-09-25T20:07:52;23.40;;;21.03;;
15061;SDS011;7630;50.306;8.566;2022-09-25T20:11:53;21.90;;;18.70;;
15061;SDS011;7630;50.306;8.566;2022-09-25T20:15:54;20.10;;;18.23;;
15061;SDS011;7630;50.306;8.566;2022-09-25T20:19:55;20.83;;;18.73;;
15061;SDS011;7630;50.306;8.566;2022-09-25T20:23:58;20.80;;;17.67;;
15061;SDS011;7630;50.306;8.566;2022-09-25T20:28:01;23.87;;;21.67;;
15061;SDS011;7630;50.306;8.566;2022-09-25T20:32:02;25.27;;;22.53;;
15061;SDS011;7630;50.306;8.566;2022-09-25T20:36:05;20.77;;;18.97;;
15061;SDS011;7630;50.306;8.566;2022-09-25T20:40:09;20.47;;;18.77;;
15061;SDS011;7630;50.306;8.566;2022-09-25T20:44:10;21.43;;;19.43;;
15061;SDS011;7630;50.306;8.566;2022-09-25T20:48:12;20.40;;;18.23;;
15061;SDS011;7630;50.306;8.566;2022-09-25T20:52:16;15.80;;;14.27;;
15061;SDS011;7630;50.306;8.566;2022-09-25T20:56:17;16.67;;;15.13;;
15061;SDS011;7630;50.306;8.566;2022-09-25T21:00:19;14.77;;;13.13;;
15061;SDS011;7630;50.306;8.566;2022-09-25T21:04:21;12.97;;;11.63;;
15061;SDS011;7630;50.306;8.566;2022-09-25T21:08:22;15.23;;;13.73;;
15061;SDS011;7630;50.306;8.566;2022-09-25T21:12:26;16.03;;;13.73;;
15061;SDS011;7630;50.306;8.566;2022-09-25T21:16:28;15.73;;;14.17;;
15061;SDS011;7630;50.306;8.566;2022-09-25T21:20:33;15.90;;;11.27;;
15061;SDS011;7630;50.306;8.566;2022-09-25T21:24:35;15.07;;;13.50;;
15061;SDS011;7630;50.306;8.566;2022-09-25T21:28:37;15.23;;;13.87;;
15061;SDS011;7630;50.306;8.566;2022-09-25T21:32:39;17.27;;;15.63;;
15061;SDS011;7630;50.306;8.566;2022-09-25T21:36:41;15.13;;;13.87;;
15061;SDS011;7630;50.306;8.566;2022-09-25T21:40:43;16.83;;;15.27;;
15061;SDS011;7630;50.306;8.566;2022-09-25T21:44:44;18.40;;;16.77;;
15061;SDS011;7630;50.306;8.566;2022-09-25T21:48:46;18.20;;;16.43;;
15061;SDS011;7630;50.306;8.566;2022-09-25T21:52:48;14.03;;;12.80;;
15061;SDS011;7630;50.306;8.566;2022-09-25T21:56:50;18.50;;;12.90;;
15061;SDS011;7630;50.306;8.566;2022-09-25T22:01:00;11.87;;;10.77;;
15061;SDS011;7630;50.306;8.566;2022-09-25T22:05:06;13.13;;;11.83;;
15061;SDS011;7630;50.306;8.566;2022-09-25T22:09:20;13.90;;;12.50;;
15061;SDS011;7630;50.306;8.566;2022-09-25T22:13:18;13.13;;;11.93;;
15061;SDS011;7630;50.306;8.566;2022-09-25T22:17:20;12.90;;;11.70;;
15061;SDS011;7630;50.306;8.566;2022-09-25T22:21:24;12.20;;;11.10;;
15061;SDS011;7630;50.306;8.566;2022-09-25T22:25:28;12.00;;;10.90;;
15061;SDS011;7630;50.306;8.566;2022-09-25T22:29:29;13.10;;;11.93;;
15061;SDS011;7630;50.306;8.566;2022-09-25T22:33:31;14.07;;;12.50;;
15061;SDS011;7630;50.306;8.566;2022-09-25T22:37:33;14.67;;;13.27;;
15061;SDS011;7630;50.306;8.566;2022-09-25T22:41:34;17.30;;;13.60;;
15061;SDS011;7630;50.306;8.566;2022-09-25T22:45:35;12.43;;;11.17;;
15061;SDS011;7630;50.306;8.566;2022-09-25T22:49:36;12.00;;;11.10;;
15061;SDS011;7630;50.306;8.566;2022-09-25T22:53:37;12.67;;;11.67;;
15061;SDS011;7630;50.306;8.566;2022-09-25T22:57:38;13.77;;;12.57;;
15061;SDS011;7630;50.306;8.566;2022-09-25T23:01:41;23.63;;;18.13;;
15061;SDS011;7630;50.306;8.566;2022-09-25T23:05:44;24.43;;;21.60;;
15061;SDS011;7630;50.306;8.566;2022-09-25T23:09:46;21.43;;;19.13;;
15061;SDS011;7630;50.306;8.566;2022-09-25T23:13:47;21.97;;;18.23;;
15061;SDS011;7630;50.306;8.566;2022-09-25T23:17:51;22.50;;;18.37;;
15061;SDS011;7630;50.306;8.566;2022-09-25T23:21:52;21.83;;;17.93;;
15061;SDS011;7630;50.306;8.566;2022-09-25T23:25:54;18.93;;;16.93;;
15061;SDS011;7630;50.306;8.566;2022-09-25T23:30:06;18.30;;;16.50;;
15061;SDS011;7630;50.306;8.566;2022-09-25T23:34:07;15.40;;;13.97;;
15061;SDS011;7630;50.306;8.566;2022-09-25T23:38:10;16.77;;;15.17;;
15061;SDS011;7630;50.306;8.566;2022-09-25T23:42:12;18.83;;;17.03;;
15061;SDS011;7630;50.306;8.566;2022-09-25T23:46:14;18.63;;;12.77;;
15061;SDS011;7630;50.306;8.566;2022-09-25T23:50:16;10.27;;;9.33;;
15061;SDS011;7630;50.306;8.566;2022-09-25T23:54:17;10.07;;;9.17;;
15061;SDS011;7630;50.306;8.566;2022-09-25T23:58:18;8.93;;;8.23;;
